sensor_id;sensor_type;location;lat;lon;timestamp;pressure;altitude;pressure_sealevel;temperature;humidity
8543;BME280;4309;42.658;23.380;2024-03-22T00:00:16;94831.66;;;7.31;62.76
8543;BME280;4309;42.658;23.380;2024-03-22T00:02:43;94828.66;;;7.21;65.46
8543;BME280;4309;42.658;23.380;2024-03-22T00:05:08;94829.03;;;7.11;66.57
8543;BME280;4309;42.658;23.380;2024-03-22T00:07:34;94835.38;;;6.96;66.54
8543;BME280;4309;42.658;23.380;2024-03-22T00:10:00;94829.00;;;6.64;68.34
8543;BME280;4309;42.658;23.380;2024-03-22T00:12:27;94831.19;;;6.61;71.05
8543;BME280;4309;42.658;23.380;2024-03-22T00:14:52;94818.66;;;6.71;72.15
8543;BME280;4309;42.658;23.380;2024-03-22T00:17:19;94823.81;;;6.64;73.09
8543;BME280;4309;42.658;23.380;2024-03-22T00:19:44;94829.75;;;6.52;77.11
8543;BME280;4309;42.658;23.380;2024-03-22T00:22:11;94836.34;;;6.54;76.91
8543;BME280;4309;42.658;23.380;2024-03-22T00:24:36;94829.94;;;6.50;76.46
8543;BME280;4309;42.658;23.380;2024-03-22T00:27:01;94829.47;;;6.40;75.52
8543;BME280;4309;42.658;23.380;2024-03-22T00:29:28;94824.19;;;6.27;75.58
8543;BME280;4309;42.658;23.380;2024-03-22T00:31:54;94828.50;;;6.13;78.14
8543;BME280;4309;42.658;23.380;2024-03-22T00:34:19;94835.72;;;6.18;73.91
8543;BME280;4309;42.658;23.380;2024-03-22T00:36:45;94828.16;;;6.23;75.51
8543;BME280;4309;42.658;23.380;2024-03-22T00:39:10;94836.13;;;6.21;74.43
8543;BME280;4309;42.658;23.380;2024-03-22T00:41:37;94830.03;;;6.08;73.42
8543;BME280;4309;42.658;23.380;2024-03-22T00:44:03;94829.88;;;6.09;73.29
8543;BME280;4309;42.658;23.380;2024-03-22T00:46:29;94830.47;;;6.11;72.72
8543;BME280;4309;42.658;23.380;2024-03-22T00:48:54;94834.81;;;6.04;72.84
8543;BME280;4309;42.658;23.380;2024-03-22T00:51:20;94827.41;;;6.01;73.86
8543;BME280;4309;42.658;23.380;2024-03-22T00:53:46;94826.84;;;6.06;73.52
8543;BME280;4309;42.658;23.380;2024-03-22T00:56:12;94828.31;;;6.15;74.14
8543;BME280;4309;42.658;23.380;2024-03-22T00:58:37;94821.00;;;6.25;70.92
8543;BME280;4309;42.658;23.380;2024-03-22T01:01:03;94831.13;;;6.20;72.47
8543;BME280;4309;42.658;23.380;2024-03-22T01:03:28;94827.16;;;6.24;72.07
8543;BME280;4309;42.658;23.380;2024-03-22T01:05:53;94827.34;;;6.22;72.65
8543;BME280;4309;42.658;23.380;2024-03-22T01:08:20;94828.22;;;6.29;72.21
8543;BME280;4309;42.658;23.380;2024-03-22T01:10:45;94823.00;;;6.29;71.76
8543;BME280;4309;42.658;23.380;2024-03-22T01:13:11;94825.19;;;6.26;73.90
8543;BME280;4309;42.658;23.380;2024-03-22T01:15:37;94825.03;;;6.34;72.89
8543;BME280;4309;42.658;23.380;2024-03-22T01:18:03;94827.06;;;6.39;73.73
8543;BME280;4309;42.658;23.380;2024-03-22T01:20:28;94830.66;;;6.38;73.49
8543;BME280;4309;42.658;23.380;2024-03-22T01:22:55;94830.47;;;6.39;73.78
8543;BME280;4309;42.658;23.380;2024-03-22T01:25:22;94834.28;;;6.43;75.30
8543;BME280;4309;42.658;23.380;2024-03-22T01:27:47;94831.50;;;6.45;74.49
8543;BME280;4309;42.658;23.380;2024-03-22T01:30:13;94826.88;;;6.40;75.75
8543;BME280;4309;42.658;23.380;2024-03-22T01:32:39;94833.63;;;6.35;75.96
8543;BME280;4309;42.658;23.380;2024-03-22T01:35:04;94831.59;;;6.30;76.85
8543;BME280;4309;42.658;23.380;2024-03-22T01:37:29;94824.47;;;6.39;76.46
8543;BME280;4309;42.658;23.380;2024-03-22T01:39:54;94822.50;;;6.41;74.40
8543;BME280;4309;42.658;23.380;2024-03-22T01:42:21;94827.06;;;6.39;75.75
8543;BME280;4309;42.658;23.380;2024-03-22T01:44:46;94829.19;;;6.28;75.46
8543;BME280;4309;42.658;23.380;2024-03-22T01:47:14;94825.41;;;6.31;75.34
8543;BME280;4309;42.658;23.380;2024-03-22T01:49:40;94832.44;;;6.37;74.13
8543;BME280;4309;42.658;23.380;2024-03-22T01:52:06;94823.88;;;6.43;74.29
8543;BME280;4309;42.658;23.380;2024-03-22T01:54:32;94825.47;;;6.44;76.61
8543;BME280;4309;42.658;23.380;2024-03-22T01:56:57;94828.66;;;6.40;77.14
8543;BME280;4309;42.658;23.380;2024-03-22T01:59:22;94833.06;;;6.39;77.14
8543;BME280;4309;42.658;23.380;2024-03-22T02:01:49;94833.44;;;6.36;76.31
8543;BME280;4309;42.658;23.380;2024-03-22T02:04:15;94833.81;;;6.33;77.32
8543;BME280;4309;42.658;23.380;2024-03-22T02:06:40;94825.63;;;6.29;78.49
8543;BME280;4309;42.658;23.380;2024-03-22T02:09:07;94822.50;;;6.13;79.22
8543;BME280;4309;42.658;23.380;2024-03-22T02:11:35;94825.91;;;6.13;79.24
8543;BME280;4309;42.658;23.380;2024-03-22T02:14:01;94822.09;;;6.09;80.21
8543;BME280;4309;42.658;23.380;2024-03-22T02:16:27;94823.13;;;5.94;81.22
8543;BME280;4309;42.658;23.380;2024-03-22T02:18:54;94825.81;;;5.79;83.27
8543;BME280;4309;42.658;23.380;2024-03-22T02:21:20;94826.19;;;5.76;84.13
8543;BME280;4309;42.658;23.380;2024-03-22T02:23:45;94834.28;;;5.67;84.27
8543;BME280;4309;42.658;23.380;2024-03-22T02:26:10;94836.31;;;5.71;85.27
8543;BME280;4309;42.658;23.380;2024-03-22T02:28:37;94843.47;;;5.69;85.56
8543;BME280;4309;42.658;23.380;2024-03-22T02:31:02;94843.03;;;5.66;85.99
8543;BME280;4309;42.658;23.380;2024-03-22T02:33:29;94837.66;;;5.67;85.46
8543;BME280;4309;42.658;23.380;2024-03-22T02:35:55;94841.06;;;5.68;85.60
8543;BME280;4309;42.658;23.380;2024-03-22T02:38:21;94849.00;;;5.45;87.15
8543;BME280;4309;42.658;23.380;2024-03-22T02:40:47;94841.94;;;5.54;87.38
8543;BME280;4309;42.658;23.380;2024-03-22T02:43:14;94854.16;;;5.60;86.26
8543;BME280;4309;42.658;23.380;2024-03-22T02:45:40;94849.25;;;5.50;84.42
8543;BME280;4309;42.658;23.380;2024-03-22T02:48:06;94859.50;;;5.37;84.38
8543;BME280;4309;42.658;23.380;2024-03-22T02:50:35;94861.38;;;5.43;83.84
8543;BME280;4309;42.658;23.380;2024-03-22T02:53:01;94859.34;;;5.39;84.10
8543;BME280;4309;42.658;23.380;2024-03-22T02:55:27;94866.84;;;5.34;80.97
8543;BME280;4309;42.658;23.380;2024-03-22T02:57:52;94870.72;;;5.23;83.39
8543;BME280;4309;42.658;23.380;2024-03-22T03:00:17;94869.94;;;5.23;82.25
8543;BME280;4309;42.658;23.380;2024-03-22T03:02:47;94867.94;;;5.25;81.32
8543;BME280;4309;42.658;23.380;2024-03-22T03:05:12;94871.13;;;4.91;81.55
8543;BME280;4309;42.658;23.380;2024-03-22T03:07:37;94878.38;;;4.96;83.17
8543;BME280;4309;42.658;23.380;2024-03-22T03:10:04;94875.00;;;4.81;83.44
8543;BME280;4309;42.658;23.380;2024-03-22T03:12:30;94883.56;;;4.81;84.48
8543;BME280;4309;42.658;23.380;2024-03-22T03:14:56;94880.00;;;4.82;83.99
8543;BME280;4309;42.658;23.380;2024-03-22T03:17:21;94886.16;;;4.66;84.05
8543;BME280;4309;42.658;23.380;2024-03-22T03:19:48;94887.03;;;4.59;84.97
8543;BME280;4309;42.658;23.380;2024-03-22T03:22:15;94894.63;;;4.60;85.27
8543;BME280;4309;42.658;23.380;2024-03-22T03:24:40;94900.78;;;4.45;86.18
8543;BME280;4309;42.658;23.380;2024-03-22T03:27:05;94894.63;;;4.31;87.44
8543;BME280;4309;42.658;23.380;2024-03-22T03:29:32;94895.31;;;4.40;87.85
8543;BME280;4309;42.658;23.380;2024-03-22T03:31:58;94895.75;;;4.29;87.90
8543;BME280;4309;42.658;23.380;2024-03-22T03:34:23;94893.97;;;4.29;89.16
8543;BME280;4309;42.658;23.380;2024-03-22T03:36:49;94898.78;;;4.32;90.67
8543;BME280;4309;42.658;23.380;2024-03-22T03:39:14;94898.50;;;4.27;90.84
8543;BME280;4309;42.658;23.380;2024-03-22T03:41:40;94912.56;;;4.33;91.43
8543;BME280;4309;42.658;23.380;2024-03-22T03:44:06;94909.22;;;4.24;93.11
8543;BME280;4309;42.658;23.380;2024-03-22T03:46:31;94910.63;;;4.12;95.66
8543;BME280;4309;42.658;23.380;2024-03-22T03:48:56;94918.91;;;4.08;96.62
8543;BME280;4309;42.658;23.380;2024-03-22T03:51:23;94913.75;;;4.08;97.55
8543;BME280;4309;42.658;23.380;2024-03-22T03:53:48;94918.00;;;4.01;98.17
8543;BME280;4309;42.658;23.380;2024-03-22T03:56:13;94912.03;;;4.00;98.47
8543;BME280;4309;42.658;23.380;2024-03-22T03:58:38;94907.22;;;3.97;99.36
8543;BME280;4309;42.658;23.380;2024-03-22T04:01:08;94908.94;;;4.05;98.87
8543;BME280;4309;42.658;23.380;2024-03-22T04:03:34;94909.88;;;4.04;99.31
8543;BME280;4309;42.658;23.380;2024-03-22T04:05:59;94905.94;;;3.93;100.00
8543;BME280;4309;42.658;23.380;2024-03-22T04:08:26;94914.28;;;4.03;100.00
8543;BME280;4309;42.658;23.380;2024-03-22T04:10:55;94918.88;;;3.93;100.00
8543;BME280;4309;42.658;23.380;2024-03-22T04:13:24;94915.22;;;4.02;100.00
8543;BME280;4309;42.658;23.380;2024-03-22T04:15:52;94914.81;;;4.13;100.00
8543;BME280;4309;42.658;23.380;2024-03-22T04:18:17;94918.69;;;4.17;98.28
8543;BME280;4309;42.658;23.380;2024-03-22T04:20:42;94922.41;;;4.15;97.96
8543;BME280;4309;42.658;23.380;2024-03-22T04:23:09;94929.13;;;4.24;95.86
8543;BME280;4309;42.658;23.380;2024-03-22T04:25:36;94929.69;;;4.34;94.45
8543;BME280;4309;42.658;23.380;2024-03-22T04:28:02;94936.84;;;4.32;93.70
8543;BME280;4309;42.658;23.380;2024-03-22T04:30:29;94927.16;;;4.26;94.90
8543;BME280;4309;42.658;23.380;2024-03-22T04:32:55;94932.44;;;4.32;95.02
8543;BME280;4309;42.658;23.380;2024-03-22T04:35:22;94933.09;;;4.34;93.56
8543;BME280;4309;42.658;23.380;2024-03-22T04:37:48;94939.59;;;4.45;92.46
8543;BME280;4309;42.658;23.380;2024-03-22T04:40:14;94936.22;;;4.44;91.81
8543;BME280;4309;42.658;23.380;2024-03-22T04:42:40;94948.94;;;4.54;90.99
8543;BME280;4309;42.658;23.380;2024-03-22T04:45:06;94948.91;;;4.39;91.19
8543;BME280;4309;42.658;23.380;2024-03-22T04:47:32;94947.47;;;4.51;91.70
8543;BME280;4309;42.658;23.380;2024-03-22T04:49:58;94941.47;;;4.51;91.69
8543;BME280;4309;42.658;23.380;2024-03-22T04:52:25;94944.47;;;4.62;90.68
8543;BME280;4309;42.658;23.380;2024-03-22T04:54:50;94949.44;;;4.49;91.14
8543;BME280;4309;42.658;23.380;2024-03-22T04:57:15;94952.03;;;4.49;90.99
8543;BME280;4309;42.658;23.380;2024-03-22T04:59:41;94943.38;;;4.71;90.49
8543;BME280;4309;42.658;23.380;2024-03-22T05:02:07;94950.44;;;4.63;89.43
8543;BME280;4309;42.658;23.380;2024-03-22T05:04:33;94951.50;;;4.68;90.18
8543;BME280;4309;42.658;23.380;2024-03-22T05:07:00;94957.03;;;4.51;90.52
8543;BME280;4309;42.658;23.380;2024-03-22T05:09:26;94958.28;;;4.55;90.59
8543;BME280;4309;42.658;23.380;2024-03-22T05:11:53;94961.28;;;4.66;90.76
8543;BME280;4309;42.658;23.380;2024-03-22T05:14:18;94957.75;;;4.59;89.29
8543;BME280;4309;42.658;23.380;2024-03-22T05:16:45;94953.22;;;4.76;88.85
8543;BME280;4309;42.658;23.380;2024-03-22T05:19:10;94962.34;;;4.87;88.48
8543;BME280;4309;42.658;23.380;2024-03-22T05:21:37;94970.31;;;4.85;88.39
8543;BME280;4309;42.658;23.380;2024-03-22T05:24:02;94962.00;;;4.90;88.15
8543;BME280;4309;42.658;23.380;2024-03-22T05:26:28;94966.19;;;5.05;89.16
8543;BME280;4309;42.658;23.380;2024-03-22T05:28:58;94971.63;;;4.96;88.99
8543;BME280;4309;42.658;23.380;2024-03-22T05:31:24;94969.41;;;5.07;89.88
8543;BME280;4309;42.658;23.380;2024-03-22T05:33:51;94975.28;;;5.16;91.04
8543;BME280;4309;42.658;23.380;2024-03-22T05:36:18;94969.84;;;5.25;90.50
8543;BME280;4309;42.658;23.380;2024-03-22T05:38:44;94971.50;;;5.33;90.22
8543;BME280;4309;42.658;23.380;2024-03-22T05:41:11;94968.13;;;5.32;89.91
8543;BME280;4309;42.658;23.380;2024-03-22T05:43:36;94979.91;;;5.49;90.01
8543;BME280;4309;42.658;23.380;2024-03-22T05:46:02;94980.88;;;5.48;89.51
8543;BME280;4309;42.658;23.380;2024-03-22T05:48:29;94982.34;;;5.72;86.72
8543;BME280;4309;42.658;23.380;2024-03-22T05:50:55;94981.81;;;6.12;84.96
8543;BME280;4309;42.658;23.380;2024-03-22T05:53:20;94977.28;;;6.90;80.43
8543;BME280;4309;42.658;23.380;2024-03-22T05:55:47;94982.19;;;7.06;77.32
8543;BME280;4309;42.658;23.380;2024-03-22T05:58:14;94987.69;;;7.65;75.37
8543;BME280;4309;42.658;23.380;2024-03-22T06:00:40;94988.81;;;8.10;73.67
8543;BME280;4309;42.658;23.380;2024-03-22T06:03:07;94986.09;;;8.89;67.50
8543;BME280;4309;42.658;23.380;2024-03-22T06:05:33;94982.13;;;9.64;63.28
8543;BME280;4309;42.658;23.380;2024-03-22T06:08:00;94990.13;;;9.82;63.84
8543;BME280;4309;42.658;23.380;2024-03-22T06:10:26;94987.63;;;9.93;62.78
8543;BME280;4309;42.658;23.380;2024-03-22T06:12:52;94983.28;;;10.25;63.52
8543;BME280;4309;42.658;23.380;2024-03-22T06:15:17;94980.44;;;10.33;60.29
8543;BME280;4309;42.658;23.380;2024-03-22T06:17:42;94973.72;;;11.17;57.63
8543;BME280;4309;42.658;23.380;2024-03-22T06:20:08;94976.47;;;11.22;55.46
8543;BME280;4309;42.658;23.380;2024-03-22T06:22:34;94978.81;;;11.12;55.93
8543;BME280;4309;42.658;23.380;2024-03-22T06:25:00;94977.00;;;11.31;55.29
8543;BME280;4309;42.658;23.380;2024-03-22T06:27:25;94982.09;;;11.44;52.53
8543;BME280;4309;42.658;23.380;2024-03-22T06:29:50;94980.06;;;11.03;55.83
8543;BME280;4309;42.658;23.380;2024-03-22T06:32:15;94980.53;;;11.79;54.35
8543;BME280;4309;42.658;23.380;2024-03-22T06:34:41;94981.00;;;12.35;52.05
8543;BME280;4309;42.658;23.380;2024-03-22T06:37:06;94980.75;;;12.66;50.47
8543;BME280;4309;42.658;23.380;2024-03-22T06:39:31;94978.19;;;12.89;49.26
8543;BME280;4309;42.658;23.380;2024-03-22T06:41:56;94986.34;;;13.11;47.52
8543;BME280;4309;42.658;23.380;2024-03-22T06:44:22;94980.72;;;12.96;47.31
8543;BME280;4309;42.658;23.380;2024-03-22T06:46:47;94986.28;;;12.99;47.89
8543;BME280;4309;42.658;23.380;2024-03-22T06:49:13;94988.75;;;13.24;48.79
8543;BME280;4309;42.658;23.380;2024-03-22T06:51:40;94991.47;;;13.52;46.95
8543;BME280;4309;42.658;23.380;2024-03-22T06:54:06;94989.59;;;13.75;50.12
8543;BME280;4309;42.658;23.380;2024-03-22T06:56:31;94995.53;;;14.22;45.81
8543;BME280;4309;42.658;23.380;2024-03-22T06:58:58;94996.00;;;14.59;45.03
8543;BME280;4309;42.658;23.380;2024-03-22T07:01:24;94993.50;;;14.24;47.39
8543;BME280;4309;42.658;23.380;2024-03-22T07:03:49;94983.50;;;14.82;45.86
8543;BME280;4309;42.658;23.380;2024-03-22T07:06:16;95003.53;;;14.39;46.04
8543;BME280;4309;42.658;23.380;2024-03-22T07:08:44;94993.31;;;14.87;46.75
8543;BME280;4309;42.658;23.380;2024-03-22T07:11:11;94998.81;;;14.85;46.99
8543;BME280;4309;42.658;23.380;2024-03-22T07:13:37;94993.31;;;14.87;47.41
8543;BME280;4309;42.658;23.380;2024-03-22T07:16:04;94992.78;;;15.73;46.80
8543;BME280;4309;42.658;23.380;2024-03-22T07:18:29;94991.50;;;15.20;46.56
8543;BME280;4309;42.658;23.380;2024-03-22T07:20:55;94995.78;;;15.60;45.44
8543;BME280;4309;42.658;23.380;2024-03-22T07:23:24;94999.56;;;16.07;45.45
8543;BME280;4309;42.658;23.380;2024-03-22T07:25:50;94999.38;;;16.35;43.81
8543;BME280;4309;42.658;23.380;2024-03-22T07:28:15;94995.88;;;16.51;41.73
8543;BME280;4309;42.658;23.380;2024-03-22T07:30:41;94992.47;;;16.34;41.32
8543;BME280;4309;42.658;23.380;2024-03-22T07:33:10;94991.56;;;16.45;41.70
8543;BME280;4309;42.658;23.380;2024-03-22T07:35:36;94994.59;;;16.53;42.77
8543;BME280;4309;42.658;23.380;2024-03-22T07:38:03;94993.94;;;17.31;41.89
8543;BME280;4309;42.658;23.380;2024-03-22T07:40:29;94999.66;;;16.86;39.28
8543;BME280;4309;42.658;23.380;2024-03-22T07:42:55;95000.63;;;17.07;39.57
8543;BME280;4309;42.658;23.380;2024-03-22T07:45:21;94995.28;;;16.70;40.38
8543;BME280;4309;42.658;23.380;2024-03-22T07:47:47;94995.22;;;16.17;39.88
8543;BME280;4309;42.658;23.380;2024-03-22T07:50:13;94988.84;;;15.54;42.72
8543;BME280;4309;42.658;23.380;2024-03-22T07:52:40;94999.25;;;15.82;40.90
8543;BME280;4309;42.658;23.380;2024-03-22T07:55:06;95001.41;;;15.46;42.14
8543;BME280;4309;42.658;23.380;2024-03-22T07:57:31;94994.41;;;15.57;41.09
8543;BME280;4309;42.658;23.380;2024-03-22T07:59:58;95003.31;;;16.11;40.73
8543;BME280;4309;42.658;23.380;2024-03-22T08:02:25;94998.84;;;16.11;39.66
8543;BME280;4309;42.658;23.380;2024-03-22T08:04:51;95002.75;;;16.78;39.23
8543;BME280;4309;42.658;23.380;2024-03-22T08:07:18;95005.53;;;16.93;39.09
8543;BME280;4309;42.658;23.380;2024-03-22T08:09:44;95003.56;;;16.79;38.87
8543;BME280;4309;42.658;23.380;2024-03-22T08:12:11;95001.41;;;17.02;37.75
8543;BME280;4309;42.658;23.380;2024-03-22T08:14:37;94999.63;;;16.81;37.40
8543;BME280;4309;42.658;23.380;2024-03-22T08:17:04;95002.09;;;17.56;38.05
8543;BME280;4309;42.658;23.380;2024-03-22T08:19:32;94998.03;;;17.12;37.45
8543;BME280;4309;42.658;23.380;2024-03-22T08:21:58;94995.72;;;17.21;37.74
8543;BME280;4309;42.658;23.380;2024-03-22T08:24:24;94992.66;;;17.02;37.24
8543;BME280;4309;42.658;23.380;2024-03-22T08:26:51;94994.97;;;17.25;36.67
8543;BME280;4309;42.658;23.380;2024-03-22T08:29:17;94985.78;;;17.38;37.38
8543;BME280;4309;42.658;23.380;2024-03-22T08:31:44;94994.41;;;17.55;36.39
8543;BME280;4309;42.658;23.380;2024-03-22T08:34:10;94993.22;;;17.41;36.10
8543;BME280;4309;42.658;23.380;2024-03-22T08:36:37;94998.81;;;17.13;36.25
8543;BME280;4309;42.658;23.380;2024-03-22T08:39:03;94989.31;;;16.80;36.55
8543;BME280;4309;42.658;23.380;2024-03-22T08:41:30;94992.97;;;16.31;37.09
8543;BME280;4309;42.658;23.380;2024-03-22T08:43:56;94992.19;;;16.52;37.44
8543;BME280;4309;42.658;23.380;2024-03-22T08:46:22;94994.22;;;16.45;37.56
8543;BME280;4309;42.658;23.380;2024-03-22T08:48:48;94994.22;;;17.66;36.20
8543;BME280;4309;42.658;23.380;2024-03-22T08:51:14;94998.28;;;16.52;36.70
8543;BME280;4309;42.658;23.380;2024-03-22T08:53:41;94991.34;;;17.36;38.53
8543;BME280;4309;42.658;23.380;2024-03-22T08:56:07;94986.06;;;17.73;36.32
8543;BME280;4309;42.658;23.380;2024-03-22T08:58:32;94990.81;;;16.71;37.45
8543;BME280;4309;42.658;23.380;2024-03-22T09:00:59;94989.63;;;17.52;36.95
8543;BME280;4309;42.658;23.380;2024-03-22T09:03:26;94996.41;;;18.36;35.58
8543;BME280;4309;42.658;23.380;2024-03-22T09:05:55;94996.91;;;18.28;34.45
8543;BME280;4309;42.658;23.380;2024-03-22T09:08:22;94994.63;;;17.90;35.01
8543;BME280;4309;42.658;23.380;2024-03-22T09:10:48;94997.44;;;17.73;35.03
8543;BME280;4309;42.658;23.380;2024-03-22T09:13:14;94988.34;;;17.54;34.80
8543;BME280;4309;42.658;23.380;2024-03-22T09:15:39;94984.19;;;17.68;35.78
8543;BME280;4309;42.658;23.380;2024-03-22T09:18:04;94987.66;;;17.74;35.24
8543;BME280;4309;42.658;23.380;2024-03-22T09:20:30;94991.41;;;17.83;34.51
8543;BME280;4309;42.658;23.380;2024-03-22T09:22:55;94972.75;;;17.58;35.47
8543;BME280;4309;42.658;23.380;2024-03-22T09:25:22;94975.13;;;18.11;34.80
8543;BME280;4309;42.658;23.380;2024-03-22T09:27:47;94968.38;;;18.45;35.30
8543;BME280;4309;42.658;23.380;2024-03-22T09:30:12;94965.81;;;18.95;34.23
8543;BME280;4309;42.658;23.380;2024-03-22T09:32:38;94956.81;;;19.01;33.99
8543;BME280;4309;42.658;23.380;2024-03-22T09:35:03;94966.06;;;18.89;33.00
8543;BME280;4309;42.658;23.380;2024-03-22T09:37:29;94967.88;;;17.86;34.77
8543;BME280;4309;42.658;23.380;2024-03-22T09:39:54;94968.09;;;17.75;34.06
8543;BME280;4309;42.658;23.380;2024-03-22T09:42:19;94969.38;;;18.29;34.31
8543;BME280;4309;42.658;23.380;2024-03-22T09:46:25;94969.72;;;18.47;34.81
8543;BME280;4309;42.658;23.380;2024-03-22T09:48:52;94960.94;;;17.70;34.43
8543;BME280;4309;42.658;23.380;2024-03-22T09:51:17;94961.25;;;17.84;34.21
8543;BME280;4309;42.658;23.380;2024-03-22T09:53:44;94957.22;;;18.33;34.41
8543;BME280;4309;42.658;23.380;2024-03-22T09:56:10;94957.56;;;18.57;34.07
8543;BME280;4309;42.658;23.380;2024-03-22T09:58:36;94951.50;;;19.01;34.57
8543;BME280;4309;42.658;23.380;2024-03-22T10:01:02;94948.59;;;19.18;33.53
8543;BME280;4309;42.658;23.380;2024-03-22T10:03:28;94951.22;;;19.68;33.02
8543;BME280;4309;42.658;23.380;2024-03-22T10:05:54;94941.44;;;20.27;33.87
8543;BME280;4309;42.658;23.380;2024-03-22T10:08:19;94942.91;;;19.84;31.86
8543;BME280;4309;42.658;23.380;2024-03-22T10:10:45;94946.75;;;19.13;32.15
8543;BME280;4309;42.658;23.380;2024-03-22T10:13:11;94948.06;;;19.16;32.31
8543;BME280;4309;42.658;23.380;2024-03-22T10:15:36;94950.84;;;18.34;32.81
8543;BME280;4309;42.658;23.380;2024-03-22T10:18:02;94938.22;;;19.21;32.65
8543;BME280;4309;42.658;23.380;2024-03-22T10:20:28;94939.59;;;19.29;33.67
8543;BME280;4309;42.658;23.380;2024-03-22T10:22:57;94939.22;;;19.80;32.68
8543;BME280;4309;42.658;23.380;2024-03-22T10:25:23;94933.25;;;20.19;32.49
8543;BME280;4309;42.658;23.380;2024-03-22T10:27:49;94931.88;;;20.31;31.23
8543;BME280;4309;42.658;23.380;2024-03-22T10:30:15;94933.75;;;19.22;31.76
8543;BME280;4309;42.658;23.380;2024-03-22T10:32:41;94927.94;;;19.35;32.29
8543;BME280;4309;42.658;23.380;2024-03-22T10:35:07;94923.78;;;19.97;30.91
8543;BME280;4309;42.658;23.380;2024-03-22T10:37:33;94920.78;;;19.30;32.28
8543;BME280;4309;42.658;23.380;2024-03-22T10:40:00;94913.88;;;19.14;31.98
8543;BME280;4309;42.658;23.380;2024-03-22T10:42:26;94915.97;;;18.42;32.78
8543;BME280;4309;42.658;23.380;2024-03-22T10:44:51;94921.34;;;18.00;32.85
8543;BME280;4309;42.658;23.380;2024-03-22T10:47:16;94908.63;;;17.41;34.34
8543;BME280;4309;42.658;23.380;2024-03-22T10:49:43;94913.59;;;17.79;33.43
8543;BME280;4309;42.658;23.380;2024-03-22T10:52:10;94908.56;;;17.77;33.30
8543;BME280;4309;42.658;23.380;2024-03-22T10:54:37;94906.72;;;17.31;36.72
8543;BME280;4309;42.658;23.380;2024-03-22T10:57:05;94905.19;;;17.40;33.98
8543;BME280;4309;42.658;23.380;2024-03-22T10:59:34;94901.00;;;17.44;36.15
8543;BME280;4309;42.658;23.380;2024-03-22T11:02:03;94903.66;;;17.44;34.85
8543;BME280;4309;42.658;23.380;2024-03-22T11:04:29;94897.53;;;17.39;35.47
8543;BME280;4309;42.658;23.380;2024-03-22T11:06:56;94893.94;;;16.76;35.66
8543;BME280;4309;42.658;23.380;2024-03-22T11:09:22;94890.63;;;16.59;38.08
8543;BME280;4309;42.658;23.380;2024-03-22T11:11:48;94887.94;;;16.54;38.03
8543;BME280;4309;42.658;23.380;2024-03-22T11:14:13;94883.50;;;16.33;35.60
8543;BME280;4309;42.658;23.380;2024-03-22T11:16:38;94885.06;;;15.81;36.18
8543;BME280;4309;42.658;23.380;2024-03-22T11:19:04;94884.25;;;15.37;37.31
8543;BME280;4309;42.658;23.380;2024-03-22T11:21:32;94886.41;;;15.24;37.41
8543;BME280;4309;42.658;23.380;2024-03-22T11:24:00;94881.88;;;15.19;37.53
8543;BME280;4309;42.658;23.380;2024-03-22T11:26:25;94880.09;;;15.41;38.42
8543;BME280;4309;42.658;23.380;2024-03-22T11:28:50;94875.47;;;15.48;37.84
8543;BME280;4309;42.658;23.380;2024-03-22T11:31:16;94876.28;;;15.32;38.23
8543;BME280;4309;42.658;23.380;2024-03-22T11:33:41;94872.34;;;15.35;37.62
8543;BME280;4309;42.658;23.380;2024-03-22T11:36:07;94877.19;;;15.21;37.07
8543;BME280;4309;42.658;23.380;2024-03-22T11:38:33;94866.84;;;14.98;39.52
8543;BME280;4309;42.658;23.380;2024-03-22T11:40:59;94865.97;;;15.69;38.45
8543;BME280;4309;42.658;23.380;2024-03-22T11:43:28;94861.00;;;16.52;37.05
8543;BME280;4309;42.658;23.380;2024-03-22T11:45:55;94859.06;;;16.43;36.52
8543;BME280;4309;42.658;23.380;2024-03-22T11:48:21;94859.34;;;15.93;36.42
8543;BME280;4309;42.658;23.380;2024-03-22T11:50:46;94852.47;;;15.66;36.54
8543;BME280;4309;42.658;23.380;2024-03-22T11:53:12;94853.19;;;15.83;36.91
8543;BME280;4309;42.658;23.380;2024-03-22T11:55:37;94843.25;;;15.90;36.58
8543;BME280;4309;42.658;23.380;2024-03-22T11:58:03;94842.09;;;15.37;36.89
8543;BME280;4309;42.658;23.380;2024-03-22T12:00:28;94840.31;;;15.05;37.80
8543;BME280;4309;42.658;23.380;2024-03-22T12:02:54;94843.50;;;15.23;37.72
8543;BME280;4309;42.658;23.380;2024-03-22T12:05:23;94838.81;;;15.30;36.88
8543;BME280;4309;42.658;23.380;2024-03-22T12:07:51;94834.06;;;15.49;37.26
8543;BME280;4309;42.658;23.380;2024-03-22T12:10:16;94824.59;;;15.48;36.80
8543;BME280;4309;42.658;23.380;2024-03-22T12:12:42;94830.81;;;15.64;37.71
8543;BME280;4309;42.658;23.380;2024-03-22T12:15:07;94830.63;;;15.70;39.56
8543;BME280;4309;42.658;23.380;2024-03-22T12:17:32;94811.78;;;15.83;38.52
8543;BME280;4309;42.658;23.380;2024-03-22T12:20:01;94817.09;;;15.88;38.01
8543;BME280;4309;42.658;23.380;2024-03-22T12:22:29;94810.22;;;15.61;38.04
8543;BME280;4309;42.658;23.380;2024-03-22T12:24:54;94817.50;;;15.75;37.51
8543;BME280;4309;42.658;23.380;2024-03-22T12:27:20;94814.19;;;15.85;37.66
8543;BME280;4309;42.658;23.380;2024-03-22T12:29:45;94807.22;;;16.00;37.17
8543;BME280;4309;42.658;23.380;2024-03-22T12:32:11;94814.38;;;16.05;36.30
8543;BME280;4309;42.658;23.380;2024-03-22T12:34:36;94808.56;;;15.33;36.57
8543;BME280;4309;42.658;23.380;2024-03-22T12:37:03;94788.59;;;15.37;36.92
8543;BME280;4309;42.658;23.380;2024-03-22T12:39:28;94802.81;;;15.36;36.64
8543;BME280;4309;42.658;23.380;2024-03-22T12:41:54;94798.47;;;15.46;37.03
8543;BME280;4309;42.658;23.380;2024-03-22T12:44:20;94804.75;;;15.40;36.49
8543;BME280;4309;42.658;23.380;2024-03-22T12:46:46;94804.06;;;15.50;36.86
8543;BME280;4309;42.658;23.380;2024-03-22T12:49:12;94805.44;;;15.58;36.69
8543;BME280;4309;42.658;23.380;2024-03-22T12:51:38;94806.25;;;15.58;36.47
8543;BME280;4309;42.658;23.380;2024-03-22T12:54:04;94793.75;;;15.48;36.56
8543;BME280;4309;42.658;23.380;2024-03-22T12:56:30;94795.81;;;15.68;36.58
8543;BME280;4309;42.658;23.380;2024-03-22T12:58:56;94797.19;;;15.49;36.20
8543;BME280;4309;42.658;23.380;2024-03-22T13:01:21;94786.38;;;15.50;36.42
8543;BME280;4309;42.658;23.380;2024-03-22T13:03:47;94785.00;;;15.70;36.07
8543;BME280;4309;42.658;23.380;2024-03-22T13:06:12;94780.44;;;15.60;35.91
8543;BME280;4309;42.658;23.380;2024-03-22T13:08:38;94776.34;;;15.47;35.43